sensor_id;sensor_type;location;lat;lon;timestamp;P1;durP1;ratioP1;P2;durP2;ratioP2
18499;SDS011;9379;52.134;11.576;2022-07-12T00:01:46;0.70;;;0.70;;
18499;SDS011;9379;52.134;11.576;2022-07-12T00:04:14;0.98;;;0.88;;
18499;SDS011;9379;52.134;11.576;2022-07-12T00:06:41;3.10;;;1.45;;
18499;SDS011;9379;52.134;11.576;2022-07-12T00:09:08;8.10;;;1.13;;
18499;SDS011;9379;52.134;11.576;2022-07-12T00:11:35;1.25;;;1.00;;
18499;SDS011;9379;52.134;11.576;2022-07-12T00:14:02;1.85;;;0.98;;
18499;SDS011;9379;52.134;11.576;2022-07-12T00:16:29;1.13;;;0.90;;
18499;SDS011;9379;52.134;11.576;2022-07-12T00:18:55;0.95;;;0.80;;
18499;SDS011;9379;52.134;11.576;2022-07-12T00:21:25;1.27;;;1.17;;
18499;SDS011;9379;52.134;11.576;2022-07-12T00:23:51;0.85;;;0.63;;
18499;SDS011;9379;52.134;11.576;2022-07-12T00:26:18;0.70;;;0.70;;
18499;SDS011;9379;52.134;11.576;2022-07-12T00:28:45;0.65;;;0.65;;
18499;SDS011;9379;52.134;11.576;2022-07-12T00:31:12;0.68;;;0.68;;
18499;SDS011;9379;52.134;11.576;2022-07-12T00:33:39;1.00;;;0.75;;
18499;SDS011;9379;52.134;11.576;2022-07-12T00:36:06;1.30;;;1.20;;
18499;SDS011;9379;52.134;11.576;2022-07-12T00:38:35;1.35;;;1.27;;
18499;SDS011;9379;52.134;11.576;2022-07-12T00:41:02;0.80;;;0.80;;
18499;SDS011;9379;52.134;11.576;2022-07-12T00:43:28;0.98;;;0.98;;
18499;SDS011;9379;52.134;11.576;2022-07-12T00:45:55;1.67;;;1.05;;
18499;SDS011;9379;52.134;11.576;2022-07-12T00:48:22;0.90;;;0.90;;
18499;SDS011;9379;52.134;11.576;2022-07-12T00:50:50;1.52;;;1.20;;
18499;SDS011;9379;52.134;11.576;2022-07-12T00:53:16;1.27;;;1.02;;
18499;SDS011;9379;52.134;11.576;2022-07-12T00:55:49;1.40;;;1.30;;
18499;SDS011;9379;52.134;11.576;2022-07-12T00:58:19;1.30;;;1.20;;
18499;SDS011;9379;52.134;11.576;2022-07-12T01:00:48;0.88;;;0.88;;
18499;SDS011;9379;52.134;11.576;2022-07-12T01:03:14;1.13;;;1.13;;
18499;SDS011;9379;52.134;11.576;2022-07-12T01:05:42;2.85;;;1.98;;
18499;SDS011;9379;52.134;11.576;2022-07-12T01:08:09;0.98;;;0.98;;
18499;SDS011;9379;52.134;11.576;2022-07-12T01:10:37;1.20;;;1.10;;
18499;SDS011;9379;52.134;11.576;2022-07-12T01:13:06;1.10;;;1.00;;
18499;SDS011;9379;52.134;11.576;2022-07-12T01:15:33;1.20;;;1.10;;
18499;SDS011;9379;52.134;11.576;2022-07-12T01:18:00;10.68;;;1.52;;
18499;SDS011;9379;52.134;11.576;2022-07-12T01:20:28;3.53;;;2.05;;
18499;SDS011;9379;52.134;11.576;2022-07-12T01:22:56;2.00;;;1.10;;
18499;SDS011;9379;52.134;11.576;2022-07-12T01:25:23;1.48;;;1.20;;
18499;SDS011;9379;52.134;11.576;2022-07-12T01:27:51;3.88;;;2.25;;
18499;SDS011;9379;52.134;11.576;2022-07-12T01:30:17;3.30;;;1.50;;
18499;SDS011;9379;52.134;11.576;2022-07-12T01:32:45;1.73;;;1.33;;
18499;SDS011;9379;52.134;11.576;2022-07-12T01:35:12;1.50;;;1.40;;
18499;SDS011;9379;52.134;11.576;2022-07-12T01:37:40;1.35;;;1.25;;
18499;SDS011;9379;52.134;11.576;2022-07-12T01:40:11;1.90;;;1.80;;
18499;SDS011;9379;52.134;11.576;2022-07-12T01:42:39;1.05;;;0.98;;
18499;SDS011;9379;52.134;11.576;2022-07-12T01:45:07;1.55;;;1.40;;
18499;SDS011;9379;52.134;11.576;2022-07-12T01:47:34;0.90;;;0.90;;
18499;SDS011;9379;52.134;11.576;2022-07-12T01:50:03;1.60;;;1.50;;
18499;SDS011;9379;52.134;11.576;2022-07-12T01:52:31;1.30;;;1.20;;
18499;SDS011;9379;52.134;11.576;2022-07-12T01:54:58;2.83;;;1.38;;
18499;SDS011;9379;52.134;11.576;2022-07-12T01:57:27;1.58;;;1.38;;
18499;SDS011;9379;52.134;11.576;2022-07-12T01:59:54;2.05;;;1.48;;
18499;SDS011;9379;52.134;11.576;2022-07-12T02:02:21;2.28;;;1.67;;
18499;SDS011;9379;52.134;11.576;2022-07-12T02:04:50;1.63;;;1.52;;
18499;SDS011;9379;52.134;11.576;2022-07-12T02:07:17;1.88;;;1.77;;
18499;SDS011;9379;52.134;11.576;2022-07-12T02:09:44;1.35;;;1.25;;
18499;SDS011;9379;52.134;11.576;2022-07-12T02:12:11;1.83;;;1.73;;
18499;SDS011;9379;52.134;11.576;2022-07-12T02:14:39;1.60;;;1.45;;
18499;SDS011;9379;52.134;11.576;2022-07-12T02:17:05;2.25;;;1.92;;
18499;SDS011;9379;52.134;11.576;2022-07-12T02:19:32;1.95;;;1.70;;
18499;SDS011;9379;52.134;11.576;2022-07-12T02:21:59;1.63;;;1.52;;
18499;SDS011;9379;52.134;11.576;2022-07-12T02:24:26;1.20;;;1.10;;
18499;SDS011;9379;52.134;11.576;2022-07-12T02:26:52;4.03;;;1.40;;
18499;SDS011;9379;52.134;11.576;2022-07-12T02:29:19;2.22;;;1.80;;
18499;SDS011;9379;52.134;11.576;2022-07-12T02:31:48;3.67;;;2.50;;
18499;SDS011;9379;52.134;11.576;2022-07-12T02:34:15;3.42;;;1.75;;
18499;SDS011;9379;52.134;11.576;2022-07-12T02:36:42;1.48;;;1.38;;
18499;SDS011;9379;52.134;11.576;2022-07-12T02:39:09;1.55;;;1.45;;
18499;SDS011;9379;52.134;11.576;2022-07-12T02:41:36;2.00;;;1.23;;
18499;SDS011;9379;52.134;11.576;2022-07-12T02:44:03;2.30;;;2.10;;
18499;SDS011;9379;52.134;11.576;2022-07-12T02:46:30;2.63;;;1.25;;
18499;SDS011;9379;52.134;11.576;2022-07-12T02:48:58;2.60;;;0.95;;
18499;SDS011;9379;52.134;11.576;2022-07-12T02:51:25;1.45;;;1.35;;
18499;SDS011;9379;52.134;11.576;2022-07-12T02:53:51;1.80;;;1.50;;
18499;SDS011;9379;52.134;11.576;2022-07-12T02:56:18;1.50;;;1.40;;
18499;SDS011;9379;52.134;11.576;2022-07-12T02:58:45;1.63;;;1.20;;
18499;SDS011;9379;52.134;11.576;2022-07-12T03:01:11;1.50;;;1.40;;
18499;SDS011;9379;52.134;11.576;2022-07-12T03:03:39;1.70;;;1.60;;
18499;SDS011;9379;52.134;11.576;2022-07-12T03:06:07;3.00;;;2.47;;
18499;SDS011;9379;52.134;11.576;2022-07-12T03:08:34;2.28;;;1.75;;
18499;SDS011;9379;52.134;11.576;2022-07-12T03:11:01;1.38;;;1.27;;
18499;SDS011;9379;52.134;11.576;2022-07-12T03:13:27;1.58;;;1.30;;
18499;SDS011;9379;52.134;11.576;2022-07-12T03:15:57;1.63;;;1.52;;
18499;SDS011;9379;52.134;11.576;2022-07-12T03:18:24;1.52;;;1.42;;
18499;SDS011;9379;52.134;11.576;2022-07-12T03:20:51;1.67;;;1.58;;
18499;SDS011;9379;52.134;11.576;2022-07-12T03:23:19;0.85;;;0.85;;
18499;SDS011;9379;52.134;11.576;2022-07-12T03:25:46;1.23;;;1.20;;
18499;SDS011;9379;52.134;11.576;2022-07-12T03:28:13;1.60;;;1.50;;
18499;SDS011;9379;52.134;11.576;2022-07-12T03:30:39;3.65;;;1.70;;
18499;SDS011;9379;52.134;11.576;2022-07-12T03:33:06;1.77;;;1.67;;
18499;SDS011;9379;52.134;11.576;2022-07-12T03:35:33;2.00;;;1.90;;
18499;SDS011;9379;52.134;11.576;2022-07-12T03:41:36;1.30;;;1.10;;
18499;SDS011;9379;52.134;11.576;2022-07-12T03:44:03;1.40;;;1.30;;
18499;SDS011;9379;52.134;11.576;2022-07-12T03:46:31;2.05;;;1.52;;
18499;SDS011;9379;52.134;11.576;2022-07-12T03:48:57;1.27;;;1.17;;
18499;SDS011;9379;52.134;11.576;2022-07-12T03:51:24;2.08;;;1.90;;
18499;SDS011;9379;52.134;11.576;2022-07-12T03:53:51;1.65;;;1.55;;
18499;SDS011;9379;52.134;11.576;2022-07-12T03:56:18;1.50;;;1.40;;
18499;SDS011;9379;52.134;11.576;2022-07-12T03:59:00;3.33;;;1.73;;
18499;SDS011;9379;52.134;11.576;2022-07-12T04:01:26;2.03;;;1.92;;
18499;SDS011;9379;52.134;11.576;2022-07-12T04:03:54;2.70;;;2.33;;
18499;SDS011;9379;52.134;11.576;2022-07-12T04:06:21;1.73;;;1.63;;
18499;SDS011;9379;52.134;11.576;2022-07-12T04:08:48;2.75;;;2.42;;
18499;SDS011;9379;52.134;11.576;2022-07-12T04:11:15;3.15;;;1.95;;
18499;SDS011;9379;52.134;11.576;2022-07-12T04:13:41;1.63;;;1.52;;
18499;SDS011;9379;52.134;11.576;2022-07-12T04:16:10;1.40;;;1.30;;
18499;SDS011;9379;52.134;11.576;2022-07-12T04:18:37;1.77;;;1.67;;
18499;SDS011;9379;52.134;11.576;2022-07-12T04:21:04;5.60;;;1.80;;
18499;SDS011;9379;52.134;11.576;2022-07-12T04:23:31;1.23;;;1.13;;
18499;SDS011;9379;52.134;11.576;2022-07-12T04:25:57;2.83;;;2.22;;
18499;SDS011;9379;52.134;11.576;2022-07-12T04:28:24;1.58;;;1.48;;
18499;SDS011;9379;52.134;11.576;2022-07-12T04:30:51;4.55;;;1.73;;
18499;SDS011;9379;52.134;11.576;2022-07-12T04:33:19;2.13;;;1.98;;
18499;SDS011;9379;52.134;11.576;2022-07-12T04:35:46;2.05;;;1.92;;
18499;SDS011;9379;52.134;11.576;2022-07-12T04:38:13;1.88;;;1.30;;
18499;SDS011;9379;52.134;11.576;2022-07-12T04:40:39;2.72;;;1.27;;
18499;SDS011;9379;52.134;11.576;2022-07-12T04:43:06;1.30;;;1.20;;
18499;SDS011;9379;52.134;11.576;2022-07-12T04:45:33;2.10;;;1.95;;
18499;SDS011;9379;52.134;11.576;2022-07-12T04:47:59;1.52;;;1.42;;
18499;SDS011;9379;52.134;11.576;2022-07-12T04:50:28;1.67;;;1.58;;
18499;SDS011;9379;52.134;11.576;2022-07-12T04:52:54;1.83;;;1.45;;
18499;SDS011;9379;52.134;11.576;2022-07-12T04:55:21;1.88;;;1.77;;
18499;SDS011;9379;52.134;11.576;2022-07-12T04:57:48;7.30;;;1.70;;
18499;SDS011;9379;52.134;11.576;2022-07-12T05:00:15;2.00;;;1.77;;
18499;SDS011;9379;52.134;11.576;2022-07-12T05:02:44;2.92;;;2.25;;
18499;SDS011;9379;52.134;11.576;2022-07-12T05:05:11;1.83;;;1.73;;
18499;SDS011;9379;52.134;11.576;2022-07-12T05:07:39;2.30;;;2.10;;
18499;SDS011;9379;52.134;11.576;2022-07-12T05:10:06;4.00;;;2.35;;
18499;SDS011;9379;52.134;11.576;2022-07-12T05:12:33;2.47;;;1.50;;
18499;SDS011;9379;52.134;11.576;2022-07-12T05:15:01;1.88;;;1.77;;
18499;SDS011;9379;52.134;11.576;2022-07-12T05:17:28;1.73;;;1.63;;
18499;SDS011;9379;52.134;11.576;2022-07-12T05:19:54;1.52;;;1.42;;
18499;SDS011;9379;52.134;11.576;2022-07-12T05:22:21;1.90;;;1.80;;
18499;SDS011;9379;52.134;11.576;2022-07-12T05:24:49;2.50;;;1.90;;
18499;SDS011;9379;52.134;11.576;2022-07-12T05:27:16;1.90;;;1.80;;
18499;SDS011;9379;52.134;11.576;2022-07-12T05:29:42;2.33;;;1.88;;
18499;SDS011;9379;52.134;11.576;2022-07-12T05:32:09;2.58;;;1.85;;
18499;SDS011;9379;52.134;11.576;2022-07-12T05:34:36;2.22;;;2.08;;
18499;SDS011;9379;52.134;11.576;2022-07-12T05:37:04;1.88;;;1.73;;
18499;SDS011;9379;52.134;11.576;2022-07-12T05:39:31;2.60;;;2.05;;
18499;SDS011;9379;52.134;11.576;2022-07-12T05:41:59;1.92;;;1.83;;
18499;SDS011;9379;52.134;11.576;2022-07-12T05:44:25;2.65;;;1.73;;
18499;SDS011;9379;52.134;11.576;2022-07-12T05:46:52;2.88;;;2.60;;
18499;SDS011;9379;52.134;11.576;2022-07-12T05:49:19;3.30;;;2.83;;
18499;SDS011;9379;52.134;11.576;2022-07-12T05:51:45;2.20;;;2.00;;
18499;SDS011;9379;52.134;11.576;2022-07-12T05:54:29;6.05;;;2.15;;
18499;SDS011;9379;52.134;11.576;2022-07-12T05:56:59;2.05;;;1.88;;
18499;SDS011;9379;52.134;11.576;2022-07-12T05:59:26;2.63;;;1.58;;
18499;SDS011;9379;52.134;11.576;2022-07-12T06:01:54;2.28;;;2.08;;
18499;SDS011;9379;52.134;11.576;2022-07-12T06:04:21;2.40;;;2.20;;
18499;SDS011;9379;52.134;11.576;2022-07-12T06:06:47;3.85;;;2.50;;
18499;SDS011;9379;52.134;11.576;2022-07-12T06:09:14;2.17;;;1.98;;
18499;SDS011;9379;52.134;11.576;2022-07-12T06:11:41;2.33;;;2.13;;
18499;SDS011;9379;52.134;11.576;2022-07-12T06:14:09;2.28;;;2.08;;
18499;SDS011;9379;52.134;11.576;2022-07-12T06:16:35;4.05;;;2.95;;
18499;SDS011;9379;52.134;11.576;2022-07-12T06:19:02;5.03;;;2.70;;
18499;SDS011;9379;52.134;11.576;2022-07-12T06:21:29;3.85;;;2.67;;
18499;SDS011;9379;52.134;11.576;2022-07-12T06:23:56;3.65;;;3.35;;
18499;SDS011;9379;52.134;11.576;2022-07-12T06:26:22;3.10;;;2.80;;
18499;SDS011;9379;52.134;11.576;2022-07-12T06:28:49;8.02;;;4.00;;
18499;SDS011;9379;52.134;11.576;2022-07-12T06:31:17;3.85;;;3.45;;
18499;SDS011;9379;52.134;11.576;2022-07-12T06:33:44;2.83;;;2.63;;
18499;SDS011;9379;52.134;11.576;2022-07-12T06:36:10;3.58;;;3.28;;
18499;SDS011;9379;52.134;11.576;2022-07-12T06:41:34;4.75;;;3.42;;
18499;SDS011;9379;52.134;11.576;2022-07-12T06:44:01;2.53;;;2.30;;
18499;SDS011;9379;52.134;11.576;2022-07-12T06:46:29;4.70;;;2.67;;
18499;SDS011;9379;52.134;11.576;2022-07-12T06:48:56;4.63;;;3.17;;
18499;SDS011;9379;52.134;11.576;2022-07-12T06:51:22;3.58;;;3.28;;
18499;SDS011;9379;52.134;11.576;2022-07-12T06:53:49;3.40;;;3.10;;
18499;SDS011;9379;52.134;11.576;2022-07-12T06:56:16;3.42;;;2.70;;
18499;SDS011;9379;52.134;11.576;2022-07-12T06:58:43;2.90;;;2.60;;
18499;SDS011;9379;52.134;11.576;2022-07-12T07:01:09;5.20;;;3.30;;
18499;SDS011;9379;52.134;11.576;2022-07-12T07:03:37;5.65;;;3.25;;
18499;SDS011;9379;52.134;11.576;2022-07-12T07:06:04;2.78;;;2.58;;
18499;SDS011;9379;52.134;11.576;2022-07-12T07:08:31;3.92;;;3.63;;
18499;SDS011;9379;52.134;11.576;2022-07-12T07:10:58;3.70;;;2.67;;
18499;SDS011;9379;52.134;11.576;2022-07-12T07:13:24;2.33;;;2.13;;
18499;SDS011;9379;52.134;11.576;2022-07-12T07:15:51;2.92;;;2.28;;
18499;SDS011;9379;52.134;11.576;2022-07-12T07:18:18;3.20;;;2.40;;
18499;SDS011;9379;52.134;11.576;2022-07-12T07:20:46;2.10;;;1.88;;
18499;SDS011;9379;52.134;11.576;2022-07-12T07:23:13;2.10;;;2.00;;
18499;SDS011;9379;52.134;11.576;2022-07-12T07:25:42;2.67;;;2.47;;
18499;SDS011;9379;52.134;11.576;2022-07-12T07:28:09;2.58;;;2.38;;
18499;SDS011;9379;52.134;11.576;2022-07-12T07:30:35;4.85;;;2.17;;
18499;SDS011;9379;52.134;11.576;2022-07-12T07:33:19;2.33;;;2.13;;
18499;SDS011;9379;52.134;11.576;2022-07-12T07:35:48;1.85;;;1.75;;
18499;SDS011;9379;52.134;11.576;2022-07-12T07:38:16;2.45;;;2.25;;
18499;SDS011;9379;52.134;11.576;2022-07-12T07:40:43;1.70;;;1.40;;
18499;SDS011;9379;52.134;11.576;2022-07-12T07:43:10;2.17;;;1.98;;
18499;SDS011;9379;52.134;11.576;2022-07-12T07:45:37;2.10;;;2.00;;
18499;SDS011;9379;52.134;11.576;2022-07-12T07:48:04;2.03;;;1.85;;
18499;SDS011;9379;52.134;11.576;2022-07-12T07:50:31;2.30;;;2.20;;
18499;SDS011;9379;52.134;11.576;2022-07-12T07:52:59;2.83;;;2.53;;
18499;SDS011;9379;52.134;11.576;2022-07-12T07:55:26;1.98;;;1.77;;
18499;SDS011;9379;52.134;11.576;2022-07-12T07:57:53;1.55;;;1.45;;
18499;SDS011;9379;52.134;11.576;2022-07-12T08:00:19;1.95;;;1.75;;
18499;SDS011;9379;52.134;11.576;2022-07-12T08:02:46;1.50;;;1.40;;
18499;SDS011;9379;52.134;11.576;2022-07-12T08:05:13;2.20;;;2.00;;
18499;SDS011;9379;52.134;11.576;2022-07-12T08:07:39;1.48;;;1.38;;
18499;SDS011;9379;52.134;11.576;2022-07-12T08:10:08;1.60;;;1.50;;
18499;SDS011;9379;52.134;11.576;2022-07-12T08:12:35;3.67;;;2.38;;
18499;SDS011;9379;52.134;11.576;2022-07-12T08:15:01;2.10;;;1.90;;
18499;SDS011;9379;52.134;11.576;2022-07-12T08:17:28;2.40;;;2.20;;
18499;SDS011;9379;52.134;11.576;2022-07-12T08:19:55;2.08;;;1.95;;
18499;SDS011;9379;52.134;11.576;2022-07-12T08:22:22;1.50;;;1.40;;
18499;SDS011;9379;52.134;11.576;2022-07-12T08:24:49;2.47;;;1.75;;
18499;SDS011;9379;52.134;11.576;2022-07-12T08:27:17;2.08;;;1.73;;
18499;SDS011;9379;52.134;11.576;2022-07-12T08:29:44;2.30;;;2.17;;
18499;SDS011;9379;52.134;11.576;2022-07-12T08:32:10;3.30;;;2.35;;
18499;SDS011;9379;52.134;11.576;2022-07-12T08:34:37;1.90;;;1.45;;
18499;SDS011;9379;52.134;11.576;2022-07-12T08:37:04;1.70;;;1.60;;
18499;SDS011;9379;52.134;11.576;2022-07-12T08:39:31;1.08;;;1.08;;
18499;SDS011;9379;52.134;11.576;2022-07-12T08:41:57;2.20;;;1.02;;
18499;SDS011;9379;52.134;11.576;2022-07-12T08:44:26;1.00;;;1.00;;
18499;SDS011;9379;52.134;11.576;2022-07-12T08:46:52;1.77;;;1.40;;
18499;SDS011;9379;52.134;11.576;2022-07-12T08:49:19;1.13;;;1.05;;
18499;SDS011;9379;52.134;11.576;2022-07-12T08:51:46;1.00;;;0.90;;
18499;SDS011;9379;52.134;11.576;2022-07-12T08:54:13;2.70;;;1.20;;
18499;SDS011;9379;52.134;11.576;2022-07-12T08:56:42;0.90;;;0.90;;
18499;SDS011;9379;52.134;11.576;2022-07-12T08:59:14;0.70;;;0.70;;
18499;SDS011;9379;52.134;11.576;2022-07-12T09:01:46;1.25;;;1.15;;
18499;SDS011;9379;52.134;11.576;2022-07-12T09:04:15;1.10;;;1.00;;
18499;SDS011;9379;52.134;11.576;2022-07-12T09:06:43;1.92;;;1.05;;
18499;SDS011;9379;52.134;11.576;2022-07-12T09:09:10;1.23;;;1.20;;
18499;SDS011;9379;52.134;11.576;2022-07-12T09:11:37;1.00;;;0.90;;
18499;SDS011;9379;52.134;11.576;2022-07-12T09:14:05;3.42;;;0.90;;
18499;SDS011;9379;52.134;11.576;2022-07-12T09:16:33;2.03;;;0.95;;
18499;SDS011;9379;52.134;11.576;2022-07-12T09:19:15;1.65;;;1.20;;
18499;SDS011;9379;52.134;11.576;2022-07-12T09:21:46;1.58;;;1.40;;
18499;SDS011;9379;52.134;11.576;2022-07-12T09:24:15;1.15;;;1.05;;
18499;SDS011;9379;52.134;11.576;2022-07-12T09:26:44;0.90;;;0.90;;
18499;SDS011;9379;52.134;11.576;2022-07-12T09:29:11;0.90;;;0.80;;
18499;SDS011;9379;52.134;11.576;2022-07-12T09:31:39;1.13;;;1.02;;
18499;SDS011;9379;52.134;11.576;2022-07-12T09:34:29;0.90;;;0.85;;
18499;SDS011;9379;52.134;11.576;2022-07-12T09:37:13;0.70;;;0.70;;
18499;SDS011;9379;52.134;11.576;2022-07-12T09:39:40;1.52;;;1.42;;
18499;SDS011;9379;52.134;11.576;2022-07-12T09:42:07;1.52;;;1.40;;
18499;SDS011;9379;52.134;11.576;2022-07-12T09:44:36;0.90;;;0.90;;
18499;SDS011;9379;52.134;11.576;2022-07-12T09:47:04;0.95;;;0.80;;
18499;SDS011;9379;52.134;11.576;2022-07-12T09:49:34;1.00;;;0.80;;
18499;SDS011;9379;52.134;11.576;2022-07-12T09:52:01;1.00;;;1.00;;
18499;SDS011;9379;52.134;11.576;2022-07-12T09:54:30;1.25;;;1.15;;
18499;SDS011;9379;52.134;11.576;2022-07-12T09:57:02;0.90;;;0.75;;
18499;SDS011;9379;52.134;11.576;2022-07-12T09:59:30;0.82;;;0.82;;
18499;SDS011;9379;52.134;11.576;2022-07-12T10:02:02;1.73;;;1.20;;
18499;SDS011;9379;52.134;11.576;2022-07-12T10:04:31;1.17;;;1.08;;
18499;SDS011;9379;52.134;11.576;2022-07-12T10:07:01;1.05;;;1.00;;
18499;SDS011;9379;52.134;11.576;2022-07-12T10:09:29;1.17;;;1.08;;
18499;SDS011;9379;52.134;11.576;2022-07-12T10:11:56;0.90;;;0.90;;
18499;SDS011;9379;52.134;11.576;2022-07-12T10:14:23;1.70;;;1.35;;
18499;SDS011;9379;52.134;11.576;2022-07-12T10:16:51;0.93;;;0.93;;
18499;SDS011;9379;52.134;11.576;2022-07-12T10:19:22;1.10;;;1.10;;
18499;SDS011;9379;52.134;11.576;2022-07-12T10:21:52;0.70;;;0.70;;
18499;SDS011;9379;52.134;11.576;2022-07-12T10:27:30;1.40;;;0.73;;
18499;SDS011;9379;52.134;11.576;2022-07-12T10:30:14;0.73;;;0.65;;
18499;SDS011;9379;52.134;11.576;2022-07-12T10:32:45;0.80;;;0.80;;
18499;SDS011;9379;52.134;11.576;2022-07-12T10:35:14;0.82;;;0.57;;
18499;SDS011;9379;52.134;11.576;2022-07-12T10:51:11;1.63;;;0.82;;
18499;SDS011;9379;52.134;11.576;2022-07-12T10:53:39;1.08;;;0.95;;
18499;SDS011;9379;52.134;11.576;2022-07-12T10:56:08;1.98;;;1.08;;
18499;SDS011;9379;52.134;11.576;2022-07-12T10:58:36;2.42;;;1.33;;
18499;SDS011;9379;52.134;11.576;2022-07-12T11:01:05;0.75;;;0.75;;
18499;SDS011;9379;52.134;11.576;2022-07-12T11:03:37;0.70;;;0.70;;
18499;SDS011;9379;52.134;11.576;2022-07-12T11:06:06;2.00;;;0.85;;
18499;SDS011;9379;52.134;11.576;2022-07-12T11:08:47;1.92;;;1.00;;
18499;SDS011;9379;52.134;11.576;2022-07-12T11:11:15;0.80;;;0.80;;
18499;SDS011;9379;52.134;11.576;2022-07-12T11:13:42;1.40;;;1.00;;
18499;SDS011;9379;52.134;11.576;2022-07-12T11:16:09;0.60;;;0.60;;
18499;SDS011;9379;52.134;11.576;2022-07-12T11:18:36;1.40;;;1.10;;
18499;SDS011;9379;52.134;11.576;2022-07-12T11:21:03;0.60;;;0.60;;
18499;SDS011;9379;52.134;11.576;2022-07-12T11:23:32;0.95;;;0.85;;
18499;SDS011;9379;52.134;11.576;2022-07-12T11:26:00;3.72;;;1.13;;
18499;SDS011;9379;52.134;11.576;2022-07-12T11:28:28;0.80;;;0.77;;
18499;SDS011;9379;52.134;11.576;2022-07-12T11:31:01;0.60;;;0.60;;
18499;SDS011;9379;52.134;11.576;2022-07-12T11:33:29;0.75;;;0.75;;
18499;SDS011;9379;52.134;11.576;2022-07-12T11:35:58;1.92;;;1.13;;
18499;SDS011;9379;52.134;11.576;2022-07-12T11:38:26;1.75;;;0.65;;
18499;SDS011;9379;52.134;11.576;2022-07-12T11:40:55;0.50;;;0.43;;
18499;SDS011;9379;52.134;11.576;2022-07-12T11:43:23;1.15;;;0.60;;
18499;SDS011;9379;52.134;11.576;2022-07-12T11:45:50;0.73;;;0.73;;
18499;SDS011;9379;52.134;11.576;2022-07-12T11:48:17;1.58;;;0.85;;
18499;SDS011;9379;52.134;11.576;2022-07-12T11:50:44;1.10;;;0.98;;
18499;SDS011;9379;52.134;11.576;2022-07-12T11:53:15;0.55;;;0.50;;
18499;SDS011;9379;52.134;11.576;2022-07-12T11:55:44;1.90;;;0.60;;
18499;SDS011;9379;52.134;11.576;2022-07-12T11:58:13;1.65;;;0.90;;
18499;SDS011;9379;52.134;11.576;2022-07-12T12:00:40;0.77;;;0.70;;
18499;SDS011;9379;52.134;11.576;2022-07-12T12:03:07;0.88;;;0.65;;
18499;SDS011;9379;52.134;11.576;2022-07-12T12:05:34;0.95;;;0.77;;
18499;SDS011;9379;52.134;11.576;2022-07-12T12:08:02;0.60;;;0.60;;
18499;SDS011;9379;52.134;11.576;2022-07-12T12:10:29;0.80;;;0.80;;
18499;SDS011;9379;52.134;11.576;2022-07-12T12:12:57;0.95;;;0.85;;
18499;SDS011;9379;52.134;11.576;2022-07-12T12:15:26;0.52;;;0.52;;
18499;SDS011;9379;52.134;11.576;2022-07-12T12:17:57;0.40;;;0.40;;
18499;SDS011;9379;52.134;11.576;2022-07-12T12:20:25;0.30;;;0.30;;
18499;SDS011;9379;52.134;11.576;2022-07-12T12:22:54;0.80;;;0.57;;
18499;SDS011;9379;52.134;11.576;2022-07-12T12:25:22;0.55;;;0.55;;
18499;SDS011;9379;52.134;11.576;2022-07-12T12:27:49;2.13;;;0.95;;
18499;SDS011;9379;52.134;11.576;2022-07-12T12:30:20;0.93;;;0.93;;
18499;SDS011;9379;52.134;11.576;2022-07-12T12:32:49;0.30;;;0.30;;
18499;SDS011;9379;52.134;11.576;2022-07-12T12:35:17;1.73;;;0.63;;
18499;SDS011;9379;52.134;11.576;2022-07-12T12:37:52;0.93;;;0.43;;
18499;SDS011;9379;52.134;11.576;2022-07-12T12:40:21;0.75;;;0.70;;
18499;SDS011;9379;52.134;11.576;2022-07-12T12:42:50;4.00;;;1.10;;
18499;SDS011;9379;52.134;11.576;2022-07-12T12:45:17;0.85;;;0.50;;
18499;SDS011;9379;52.134;11.576;2022-07-12T12:47:57;2.80;;;0.68;;
18499;SDS011;9379;52.134;11.576;2022-07-12T12:50:38;0.55;;;0.55;;
18499;SDS011;9379;52.134;11.576;2022-07-12T12:53:06;0.50;;;0.50;;
18499;SDS011;9379;52.134;11.576;2022-07-12T12:55:34;0.60;;;0.60;;
18499;SDS011;9379;52.134;11.576;2022-07-12T12:58:01;0.60;;;0.60;;
18499;SDS011;9379;52.134;11.576;2022-07-12T13:00:28;1.50;;;0.63;;
18499;SDS011;9379;52.134;11.576;2022-07-12T13:02:57;1.83;;;0.43;;
18499;SDS011;9379;52.134;11.576;2022-07-12T13:05:25;0.45;;;0.45;;
18499;SDS011;9379;52.134;11.576;2022-07-12T13:07:53;0.60;;;0.40;;
18499;SDS011;9379;52.134;11.576;2022-07-12T13:10:19;0.50;;;0.40;;
18499;SDS011;9379;52.134;11.576;2022-07-12T13:12:46;1.30;;;0.77;;
18499;SDS011;9379;52.134;11.576;2022-07-12T13:15:13;0.30;;;0.30;;
18499;SDS011;9379;52.134;11.576;2022-07-12T13:17:40;0.98;;;0.57;;
18499;SDS011;9379;52.134;11.576;2022-07-12T13:20:09;2.35;;;1.23;;
18499;SDS011;9379;52.134;11.576;2022-07-12T13:22:38;0.50;;;0.40;;
18499;SDS011;9379;52.134;11.576;2022-07-12T13:25:06;1.20;;;0.57;;
18499;SDS011;9379;52.134;11.576;2022-07-12T13:27:33;0.50;;;0.50;;
18499;SDS011;9379;52.134;11.576;2022-07-12T13:30:00;0.40;;;0.35;;
18499;SDS011;9379;52.134;11.576;2022-07-12T13:32:27;0.40;;;0.40;;
18499;SDS011;9379;52.134;11.576;2022-07-12T13:34:54;0.35;;;0.35;;
18499;SDS011;9379;52.134;11.576;2022-07-12T13:37:22;0.40;;;0.40;;
18499;SDS011;9379;52.134;11.576;2022-07-12T13:39:49;0.40;;;0.30;;
18499;SDS011;9379;52.134;11.576;2022-07-12T13:42:30;0.30;;;0.30;;
18499;SDS011;9379;52.134;11.576;2022-07-12T13:44:56;0.45;;;0.45;;
18499;SDS011;9379;52.134;11.576;2022-07-12T13:47:23;0.73;;;0.57;;
18499;SDS011;9379;52.134;11.576;2022-07-12T13:49:50;0.65;;;0.47;;
18499;SDS011;9379;52.134;11.576;2022-07-12T13:52:17;0.47;;;0.30;;
18499;SDS011;9379;52.134;11.576;2022-07-12T13:54:45;0.50;;;0.50;;
18499;SDS011;9379;52.134;11.576;2022-07-12T13:57:12;2.50;;;0.40;;
18499;SDS011;9379;52.134;11.576;2022-07-12T13:59:39;0.55;;;0.55;;
18499;SDS011;9379;52.134;11.576;2022-07-12T14:02:05;0.40;;;0.40;;
18499;SDS011;9379;52.134;11.576;2022-07-12T14:04:32;0.38;;;0.30;;
18499;SDS011;9379;52.134;11.576;2022-07-12T14:06:59;0.60;;;0.55;;
18499;SDS011;9379;52.134;11.576;2022-07-12T14:09:26;0.40;;;0.30;;
18499;SDS011;9379;52.134;11.576;2022-07-12T14:11:55;0.55;;;0.45;;
18499;SDS011;9379;52.134;11.576;2022-07-12T14:14:22;0.35;;;0.30;;
18499;SDS011;9379;52.134;11.576;2022-07-12T14:17:20;0.50;;;0.50;;
18499;SDS011;9379;52.134;11.576;2022-07-12T14:19:47;0.40;;;0.30;;
18499;SDS011;9379;52.134;11.576;2022-07-12T14:22:14;2.97;;;1.20;;
18499;SDS011;9379;52.134;11.576;2022-07-12T14:24:41;1.33;;;0.50;;
18499;SDS011;9379;52.134;11.576;2022-07-12T14:27:09;1.00;;;0.50;;
18499;SDS011;9379;52.134;11.576;2022-07-12T14:29:36;0.50;;;0.50;;
18499;SDS011;9379;52.134;11.576;2022-07-12T14:32:03;0.47;;;0.47;;
18499;SDS011;9379;52.134;11.576;2022-07-12T14:34:30;0.60;;;0.60;;
18499;SDS011;9379;52.134;11.576;2022-07-12T14:36:56;0.40;;;0.40;;
18499;SDS011;9379;52.134;11.576;2022-07-12T14:39:23;0.93;;;0.70;;
18499;SDS011;9379;52.134;11.576;2022-07-12T14:41:50;0.40;;;0.40;;
18499;SDS011;9379;52.134;11.576;2022-07-12T14:44:18;0.77;;;0.63;;
18499;SDS011;9379;52.134;11.576;2022-07-12T14:46:44;1.45;;;0.82;;
18499;SDS011;9379;52.134;11.576;2022-07-12T14:49:11;5.93;;;1.48;;
18499;SDS011;9379;52.134;11.576;2022-07-12T14:51:38;1.10;;;0.80;;
18499;SDS011;9379;52.134;11.576;2022-07-12T14:54:05;0.40;;;0.40;;
18499;SDS011;9379;52.134;11.576;2022-07-12T14:56:32;0.43;;;0.43;;
18499;SDS011;9379;52.134;11.576;2022-07-12T14:58:59;0.60;;;0.50;;
18499;SDS011;9379;52.134;11.576;2022-07-12T15:01:27;0.40;;;0.30;;
18499;SDS011;9379;52.134;11.576;2022-07-12T15:03:53;0.50;;;0.50;;
18499;SDS011;9379;52.134;11.576;2022-07-12T15:06:20;0.95;;;0.50;;
18499;SDS011;9379;52.134;11.576;2022-07-12T15:08:47;0.60;;;0.60;;
18499;SDS011;9379;52.134;11.576;2022-07-12T15:11:14;0.43;;;0.43;;
18499;SDS011;9379;52.134;11.576;2022-07-12T15:13:41;0.40;;;0.40;;
18499;SDS011;9379;52.134;11.576;2022-07-12T15:16:08;0.30;;;0.30;;